Time;durP1;ratioP1;P1;durP2;ratioP2;P2;SDS_P1;SDS_P2;PMS_P1;PMS_P2;Temp;Humidity;BMP_temperature;BMP_pressure;BME280_temperature;BME280_humidity;BME280_pressure;Samples;Min_cycle;Max_cycle;Signal;HPM_P1;HPM_P2
2023/02/16 00:00:18;;;;;;;25.53;18.53;;;;;;;2.28;100.00;101702.44;694442;28;1314;-63
2023/02/16 00:00:38;;;;;;;27.55;19.52;;;;;;;2.28;100.00;101707.59;696525;28;1514;-64
2023/02/16 00:00:59;;;;;;;28.03;19.50;;;;;;;2.29;100.00;101704.19;695971;28;4506;-64
2023/02/16 00:01:25;;;;;;;27.02;19.10;;;;;;;2.29;100.00;101709.34;697487;28;1289;-62
2023/02/16 00:01:46;;;;;;;27.35;19.73;;;;;;;2.28;100.00;101706.72;696288;28;1317;-63
2023/02/16 00:02:09;;;;;;;25.50;18.98;;;;;;;2.29;100.00;101701.63;695332;28;1241;-63
2023/02/16 00:02:29;;;;;;;25.58;19.20;;;;;;;2.28;100.00;101705.00;694845;28;1198;-64
2023/02/16 00:02:49;;;;;;;27.57;19.70;;;;;;;2.26;100.00;101711.81;695476;28;1333;-64
2023/02/16 00:03:14;;;;;;;26.75;19.85;;;;;;;2.24;100.00;101710.84;696495;28;1364;-63
2023/02/16 00:03:34;;;;;;;26.55;19.10;;;;;;;2.24;100.00;101712.53;693979;28;1201;-62
2023/02/16 00:03:56;;;;;;;26.17;18.77;;;;;;;2.23;100.00;101703.94;693747;28;4351;-63
2023/02/16 00:04:22;;;;;;;26.73;18.92;;;;;;;2.21;100.00;101702.97;694834;28;1416;-64
2023/02/16 00:04:42;;;;;;;26.02;18.88;;;;;;;2.21;100.00;101708.13;694477;28;1254;-63
2023/02/16 00:05:21;;;;;;;27.05;18.83;;;;;;;2.18;100.00;101705.41;695399;28;1225;-64
2023/02/16 00:05:42;;;;;;;25.25;19.27;;;;;;;2.15;100.00;101703.56;692670;28;2296;-64
2023/02/16 00:06:02;;;;;;;26.03;18.93;;;;;;;2.12;100.00;101700.84;694960;28;1363;-63
2023/02/16 00:06:24;;;;;;;27.70;19.23;;;;;;;2.13;100.00;101702.63;694685;28;1401;-64
2023/02/16 00:06:45;;;;;;;26.55;19.13;;;;;;;2.13;100.00;101705.22;694104;28;5380;-63
2023/02/16 00:07:05;;;;;;;25.63;19.03;;;;;;;2.11;100.00;101698.19;694669;28;1321;-64
2023/02/16 00:07:25;;;;;;;27.48;19.40;;;;;;;2.11;100.00;101701.66;694384;28;1162;-64
2023/02/16 00:07:46;;;;;;;25.70;18.87;;;;;;;2.09;100.00;101699.81;694813;28;1567;-64
2023/02/16 00:08:06;;;;;;;24.85;18.48;;;;;;;2.07;100.00;101706.63;695114;28;1349;-63
2023/02/16 00:08:26;;;;;;;26.30;18.70;;;;;;;2.06;100.00;101704.84;694361;28;1197;-61
2023/02/16 00:08:49;;;;;;;26.10;18.45;;;;;;;2.03;100.00;101703.00;695002;28;1301;-64
2023/02/16 00:09:09;;;;;;;26.08;18.17;;;;;;;2.00;100.00;101701.16;693500;28;1289;-64
2023/02/16 00:09:30;;;;;;;26.65;19.17;;;;;;;2.00;100.00;101702.84;695174;28;1153;-64
2023/02/16 00:09:50;;;;;;;26.27;19.10;;;;;;;1.98;100.00;101713.09;693669;28;4522;-62
2023/02/16 00:10:11;;;;;;;27.07;18.87;;;;;;;1.97;100.00;101703.59;694236;28;1221;-63
2023/02/16 00:10:34;;;;;;;28.02;18.90;;;;;;;1.98;100.00;101705.38;693925;28;1196;-64
2023/02/16 00:13:43;;;;;;;26.63;19.75;;;;;;;1.89;100.00;101704.06;693949;28;1337;-63
2023/02/16 00:14:07;;;;;;;26.75;18.98;;;;;;;1.87;100.00;101707.44;693836;28;1232;-63
2023/02/16 00:14:28;;;;;;;26.33;18.98;;;;;;;1.88;100.00;101708.31;694622;28;1161;-64
2023/02/16 00:14:48;;;;;;;27.33;19.53;;;;;;;1.85;100.00;101705.59;694677;28;1882;-63
2023/02/16 00:15:16;;;;;;;27.83;19.30;;;;;;;1.85;100.00;101709.03;695340;28;1356;-63
2023/02/16 00:15:37;;;;;;;27.05;19.08;;;;;;;1.85;100.00;101715.91;695135;28;1221;-63
2023/02/16 00:15:57;;;;;;;27.52;19.20;;;;;;;1.84;100.00;101707.28;693812;28;4295;-62
2023/02/16 00:16:21;;;;;;;26.50;19.40;;;;;;;1.83;100.00;101707.22;695239;28;1566;-64
2023/02/16 00:16:41;;;;;;;26.33;19.00;;;;;;;1.83;100.00;101707.22;694201;28;1329;-61
2023/02/16 00:17:03;;;;;;;26.65;18.77;;;;;;;1.82;100.00;101708.03;694466;28;1202;-62
2023/02/16 00:17:23;;;;;;;28.58;19.77;;;;;;;1.81;100.00;101701.09;696298;28;1399;-63
2023/02/16 00:17:43;;;;;;;28.10;20.00;;;;;;;1.81;100.00;101701.09;697215;28;1445;-64
2023/02/16 00:18:15;;;;;;;26.33;19.67;;;;;;;1.80;100.00;101701.91;697369;28;1463;-63
2023/02/16 00:18:35;;;;;;;26.85;19.00;;;;;;;1.80;100.00;101704.47;696945;28;1169;-64
2023/02/16 00:18:55;;;;;;;26.33;18.77;;;;;;;1.78;100.00;101700.97;695741;28;4278;-62
2023/02/16 00:19:32;;;;;;;27.10;19.17;;;;;;;1.77;100.00;101706.91;697473;28;1209;-64
2023/02/16 00:19:53;;;;;;;25.60;17.85;;;;;;;1.79;100.00;101705.31;696504;28;1523;-63
2023/02/16 00:20:16;;;;;;;24.70;18.43;;;;;;;1.81;100.00;101706.25;694814;28;4281;-64
2023/02/16 00:20:36;;;;;;;26.05;19.17;;;;;;;1.80;100.00;101701.91;696231;28;1449;-63
2023/02/16 00:20:57;;;;;;;26.40;19.20;;;;;;;1.80;100.00;101701.91;696018;28;1436;-63
2023/02/16 00:21:17;;;;;;;28.30;19.23;;;;;;;1.78;100.00;101701.81;695305;28;1368;-63
2023/02/16 00:21:38;;;;;;;26.57;19.03;;;;;;;1.78;100.00;101708.69;695852;28;1431;-64
2023/02/16 00:21:59;;;;;;;26.95;19.42;;;;;;;1.78;100.00;101700.97;694824;28;4330;-64
2023/02/16 00:22:19;;;;;;;25.92;18.83;;;;;;;1.77;100.00;101699.19;693483;28;1150;-64
2023/02/16 00:22:40;;;;;;;25.13;18.40;;;;;;;1.77;100.00;101701.75;693375;28;1249;-64
2023/02/16 00:23:00;;;;;;;25.92;18.50;;;;;;;1.76;100.00;101697.41;694950;28;1162;-64
2023/02/16 00:23:20;;;;;;;26.43;18.80;;;;;;;1.74;100.00;101693.88;694829;28;1233;-63
2023/02/16 00:23:41;;;;;;;26.03;19.20;;;;;;;1.78;100.00;101693.22;693376;28;1568;-63
2023/02/16 00:24:02;;;;;;;24.85;18.75;;;;;;;1.77;100.00;101696.59;695087;28;1369;-63
2023/02/16 00:24:25;;;;;;;23.00;17.60;;;;;;;1.74;100.00;101696.47;693882;28;1329;-64
2023/02/16 00:24:45;;;;;;;27.33;18.83;;;;;;;1.70;100.00;101693.75;693194;28;4545;-63
2023/02/16 00:25:07;;;;;;;26.47;18.57;;;;;;;1.66;100.00;101689.25;693103;28;1353;-63
2023/02/16 00:25:27;;;;;;;25.60;19.05;;;;;;;1.70;100.00;101692.84;693972;28;1182;-64
2023/02/16 00:25:47;;;;;;;25.25;18.92;;;;;;;1.70;100.00;101693.75;694499;28;1454;-63
2023/02/16 00:26:22;;;;;;;24.60;17.93;;;;;;;1.70;100.00;101698.00;694375;28;1302;-63
2023/02/16 00:26:44;;;;;;;25.70;18.17;;;;;;;1.73;100.00;101694.69;697510;28;1277;-61
2023/02/16 00:27:12;;;;;;;25.27;17.98;;;;;;;1.68;100.00;101690.19;695053;28;1360;-64
2023/02/16 00:27:33;;;;;;;27.02;18.98;;;;;;;1.62;100.00;101696.75;690882;28;1381;-64
2023/02/16 00:27:53;;;;;;;26.88;19.13;;;;;;;1.60;100.00;101696.66;687792;28;4422;-63
2023/02/16 00:28:18;;;;;;;25.98;18.08;;;;;;;1.58;100.00;101695.72;689138;28;1432;-64
2023/02/16 00:28:38;;;;;;;25.52;18.10;;;;;;;1.59;100.00;101700.06;686240;28;1477;-64
2023/02/16 00:28:59;;;;;;;25.55;18.35;;;;;;;1.55;100.00;101692.97;684082;28;1375;-64
2023/02/16 00:29:30;;;;;;;26.60;18.42;;;;;;;1.56;100.00;101694.75;686452;28;1318;-62
2023/02/16 00:29:50;;;;;;;27.02;18.80;;;;;;;1.59;100.00;101694.03;689805;28;1418;-64
2023/02/16 00:30:19;;;;;;;26.33;18.42;;;;;;;1.61;100.00;101692.41;691994;28;1396;-64
2023/02/16 00:30:43;;;;;;;25.38;18.60;;;;;;;1.61;100.00;101703.59;690804;28;4590;-61
2023/02/16 00:31:03;;;;;;;24.57;18.30;;;;;;;1.59;100.00;101686.28;689059;28;1464;-63
2023/02/16 00:31:26;;;;;;;26.45;18.50;;;;;;;1.60;100.00;101688.94;688631;28;1229;-64
2023/02/16 00:31:47;;;;;;;29.10;19.30;;;;;;;1.57;100.00;101696.53;689178;28;1369;-63
2023/02/16 00:32:11;;;;;;;26.92;19.48;;;;;;;1.55;100.00;101697.25;689697;28;1388;-63
2023/02/16 00:32:31;;;;;;;27.25;19.42;;;;;;;1.54;100.00;101696.41;691624;28;1234;-61
2023/02/16 00:32:51;;;;;;;27.67;19.33;;;;;;;1.60;100.00;101686.38;692872;28;1431;-64
2023/02/16 00:33:17;;;;;;;26.00;19.10;;;;;;;1.72;100.00;101680.03;692017;28;1468;-63
2023/02/16 00:33:37;;;;;;;25.95;19.25;;;;;;;1.68;100.00;101690.19;692048;28;1150;-62
2023/02/16 00:34:03;;;;;;;26.13;19.17;;;;;;;1.68;100.00;101691.91;691656;28;4562;-64
2023/02/16 00:34:29;;;;;;;26.75;19.23;;;;;;;1.66;100.00;101694.41;693160;28;1283;-62
2023/02/16 00:34:49;;;;;;;27.33;18.88;;;;;;;1.67;100.00;101692.69;692311;28;1985;-62
2023/02/16 00:35:14;;;;;;;27.13;18.27;;;;;;;1.63;100.00;101693.38;692256;28;1395;-63
2023/02/16 00:35:35;;;;;;;28.30;19.85;;;;;;;1.60;100.00;101693.22;694603;28;1220;-64
2023/02/16 00:35:55;;;;;;;30.33;20.05;;;;;;;1.58;100.00;101694.81;694865;28;1298;-60
2023/02/16 00:36:15;;;;;;;30.40;21.17;;;;;;;1.60;100.00;101688.94;694994;28;1325;-64
2023/02/16 00:36:36;;;;;;;29.23;20.27;;;;;;;1.62;100.00;101696.75;696287;28;1240;-64
2023/02/16 00:36:58;;;;;;;30.05;20.75;;;;;;;1.64;100.00;101690.84;694129;28;4392;-64
2023/02/16 00:37:18;;;;;;;28.73;19.75;;;;;;;1.66;100.00;101690.94;694020;28;1511;-63
2023/02/16 00:37:39;;;;;;;29.50;19.38;;;;;;;1.64;100.00;101695.13;694397;28;1463;-64
2023/02/16 00:37:59;;;;;;;27.77;19.23;;;;;;;1.63;100.00;101694.22;694346;28;1555;-63
2023/02/16 00:38:19;;;;;;;28.27;19.63;;;;;;;1.60;100.00;101690.66;693981;28;1633;-63
2023/02/16 00:38:40;;;;;;;28.55;19.90;;;;;;;1.58;100.00;101694.81;694397;28;1352;-63
2023/02/16 00:39:00;;;;;;;29.23;20.00;;;;;;;1.56;100.00;101691.31;694222;28;5500;-63
2023/02/16 00:39:23;;;;;;;27.52;19.60;;;;;;;1.56;100.00;101692.19;694957;28;1241;-61
2023/02/16 00:39:44;;;;;;;28.02;19.83;;;;;;;1.56;100.00;101684.44;693683;28;4457;-64
2023/02/16 00:40:05;;;;;;;31.65;19.92;;;;;;;1.53;100.00;101689.47;690013;28;1513;-63
2023/02/16 00:40:25;;;;;;;29.98;19.83;;;;;;;1.54;100.00;101691.25;691988;28;1190;-64
2023/02/16 00:40:46;;;;;;;29.33;19.63;;;;;;;1.56;100.00;101689.59;689039;28;1386;-63
2023/02/16 00:41:49;;;;;;;29.58;19.77;;;;;;;1.53;100.00;101692.03;691554;28;1397;-63
2023/02/16 00:42:01;;;;;;;29.55;19.88;;;;;;;1.47;100.00;101684.91;690151;28;1832;-62
2023/02/16 00:42:27;;;;;;;29.08;20.13;;;;;;;1.47;100.00;101686.59;691339;28;1294;-62
2023/02/16 00:42:48;;;;;;;27.17;19.45;;;;;;;1.46;100.00;101687.41;694153;28;4480;-64
2023/02/16 00:43:22;;;;;;;26.63;19.30;;;;;;;1.47;100.00;101686.59;691688;28;1408;-64
2023/02/16 00:43:43;;;;;;;28.50;20.05;;;;;;;1.48;100.00;101686.66;691788;28;1334;-64
2023/02/16 00:44:05;;;;;;;27.53;19.53;;;;;;;1.48;100.00;101690.91;694371;28;1357;-64
2023/02/16 00:44:31;;;;;;;28.52;19.67;;;;;;;1.48;100.00;101685.75;691332;28;1173;-63
2023/02/16 00:44:56;;;;;;;27.80;19.55;;;;;;;1.46;100.00;101692.56;692808;28;1322;-64
2023/02/16 00:45:19;;;;;;;29.42;19.65;;;;;;;1.43;100.00;101687.25;692255;28;1559;-63
2023/02/16 00:45:40;;;;;;;30.05;20.00;;;;;;;1.42;100.00;101690.63;689211;28;1314;-63
2023/02/16 00:46:01;;;;;;;28.70;19.67;;;;;;;1.39;100.00;101683.63;686726;28;4898;-64
2023/02/16 00:46:21;;;;;;;28.98;19.55;;;;;;;1.40;100.00;101694.81;689721;28;1321;-64
2023/02/16 00:46:44;;;;;;;28.80;19.87;;;;;;;1.38;100.00;101688.72;686996;28;1310;-64
2023/02/16 00:47:18;;;;;;;29.13;20.05;;;;;;;1.36;100.00;101686.06;687269;28;1521;-62
2023/02/16 00:47:41;;;;;;;28.55;19.92;;;;;;;1.36;100.00;101693.78;690734;28;1489;-63
2023/02/16 00:48:03;;;;;;;27.77;19.40;;;;;;;1.36;100.00;101691.22;694513;28;1291;-60
2023/02/16 00:48:23;;;;;;;28.83;19.08;;;;;;;1.35;100.00;101682.59;695337;28;1342;-64
2023/02/16 00:48:46;;;;;;;28.17;19.33;;;;;;;1.35;100.00;101690.31;692366;28;4358;-63
2023/02/16 00:49:18;;;;;;;26.17;19.53;;;;;;;1.30;100.00;101690.91;693930;28;1346;-62
2023/02/16 00:49:39;;;;;;;29.40;19.70;;;;;;;1.28;100.00;101685.69;692365;28;1491;-64
2023/02/16 00:49:59;;;;;;;28.57;20.17;;;;;;;1.29;100.00;101690.03;694002;28;1627;-64
2023/02/16 00:50:27;;;;;;;26.70;20.13;;;;;;;1.31;100.00;101690.97;692121;28;1393;-61
2023/02/16 00:50:47;;;;;;;28.30;19.70;;;;;;;1.30;100.00;101691.81;693835;28;1328;-64
2023/02/16 00:51:11;;;;;;;27.90;19.30;;;;;;;1.30;100.00;101681.50;694668;28;1368;-64
2023/02/16 00:51:31;;;;;;;25.42;19.10;;;;;;;1.35;100.00;101690.31;694384;28;1335;-64
2023/02/16 00:51:51;;;;;;;27.30;18.47;;;;;;;1.35;100.00;101695.47;691081;28;4286;-64
2023/02/16 00:52:27;;;;;;;27.40;19.10;;;;;;;1.35;100.00;101689.44;691912;28;1623;-63
2023/02/16 00:52:48;;;;;;;28.52;19.40;;;;;;;1.32;100.00;101695.31;693036;28;1389;-63
2023/02/16 00:53:10;;;;;;;28.20;19.35;;;;;;;1.28;100.00;101692.53;694054;28;1340;-63
2023/02/16 00:53:30;;;;;;;27.60;19.90;;;;;;;1.26;100.00;101687.31;694123;28;1205;-63
2023/02/16 00:53:51;;;;;;;28.20;19.83;;;;;;;1.27;100.00;101690.75;694686;28;1293;-63
2023/02/16 00:54:12;;;;;;;27.70;20.30;;;;;;;1.21;100.00;101686.19;696628;28;1420;-62
2023/02/16 00:54:32;;;;;;;27.77;20.30;;;;;;;1.17;100.00;101687.72;694116;28;1353;-63
2023/02/16 00:54:53;;;;;;;29.70;20.10;;;;;;;1.18;100.00;101686.03;692784;28;4740;-64
2023/02/16 00:55:16;;;;;;;28.87;20.10;;;;;;;1.21;100.00;101690.47;693878;28;1308;-63
2023/02/16 00:55:38;;;;;;;28.48;19.33;;;;;;;1.18;100.00;101686.91;694194;28;1259;-63
2023/02/16 00:55:58;;;;;;;28.45;19.58;;;;;;;1.17;100.00;101689.41;694070;28;1365;-62
2023/02/16 00:56:20;;;;;;;27.77;19.43;;;;;;;1.16;100.00;101687.63;691686;28;1559;-64
2023/02/16 00:56:42;;;;;;;27.50;20.25;;;;;;;1.14;100.00;101684.13;692557;28;1210;-62
2023/02/16 00:57:02;;;;;;;28.60;20.15;;;;;;;1.12;100.00;101689.19;694856;28;1416;-63
2023/02/16 00:57:24;;;;;;;27.40;19.77;;;;;;;1.13;100.00;101692.66;694293;28;1359;-62
2023/02/16 00:57:52;;;;;;;28.02;19.70;;;;;;;1.10;100.00;101692.50;691536;28;4548;-63
2023/02/16 00:58:28;;;;;;;28.45;19.92;;;;;;;1.05;100.00;101687.09;692877;28;1323;-64
2023/02/16 00:58:51;;;;;;;30.08;20.80;;;;;;;1.06;100.00;101682.84;693723;28;1352;-63
2023/02/16 00:59:19;;;;;;;28.10;20.35;;;;;;;1.06;100.00;101683.72;693052;28;1348;-61
2023/02/16 00:59:39;;;;;;;28.65;20.38;;;;;;;1.06;100.00;101688.00;690617;28;1491;-64
2023/02/16 01:00:07;;;;;;;30.33;21.03;;;;;;;1.05;100.00;101679.38;692038;28;1614;-63
2023/02/16 01:00:43;;;;;;;28.08;20.40;;;;;;;1.06;100.00;101680.28;688688;28;1169;-63
2023/02/16 01:01:11;;;;;;;27.58;20.23;;;;;;;0.98;100.00;101679.88;691952;28;4918;-61
2023/02/16 01:01:33;;;;;;;28.58;20.77;;;;;;;0.95;100.00;101678.03;692809;28;2165;-63
2023/02/16 01:01:53;;;;;;;27.92;20.05;;;;;;;0.95;100.00;101678.03;693951;28;1252;-63
2023/02/16 01:02:15;;;;;;;29.58;20.52;;;;;;;0.94;100.00;101681.44;694582;28;1145;-63
2023/02/16 01:02:36;;;;;;;30.73;21.00;;;;;;;0.90;100.00;101676.03;694641;28;1246;-63
2023/02/16 01:02:59;;;;;;;28.40;20.80;;;;;;;0.90;100.00;101684.66;694563;28;1166;-63
2023/02/16 01:03:24;;;;;;;29.10;21.13;;;;;;;0.91;100.00;101676.09;695275;28;1345;-59
2023/02/16 01:03:45;;;;;;;29.35;20.80;;;;;;;0.92;100.00;101672.72;690551;28;4540;-63
2023/02/16 01:04:17;;;;;;;27.83;19.87;;;;;;;0.94;100.00;101680.53;689512;28;1163;-63
2023/02/16 01:04:38;;;;;;;28.88;20.08;;;;;;;0.95;100.00;101674.56;681245;28;1208;-62
2023/02/16 01:04:58;;;;;;;29.70;20.77;;;;;;;0.91;100.00;101678.69;683581;28;1322;-63
2023/02/16 01:05:18;;;;;;;28.75;20.35;;;;;;;0.92;100.00;101674.44;680936;28;1328;-62
2023/02/16 01:05:39;;;;;;;26.50;19.43;;;;;;;0.93;100.00;101679.66;682388;28;1195;-61
2023/02/16 01:11:18;;;;;;;25.73;18.67;;;;;;;0.86;100.00;101664.72;693525;28;1209;-61
2023/02/16 01:11:38;;;;;;;27.63;18.55;;;;;;;0.86;100.00;101669.84;691588;28;1297;-63
2023/02/16 01:12:01;;;;;;;28.67;18.83;;;;;;;0.85;100.00;101662.94;690841;28;1353;-63
2023/02/16 01:12:22;;;;;;;26.67;19.35;;;;;;;0.85;100.00;101670.66;691416;28;1206;-63
2023/02/16 01:12:42;;;;;;;27.50;19.33;;;;;;;0.85;100.00;101668.06;690643;28;4403;-64
2023/02/16 01:13:03;;;;;;;26.58;18.80;;;;;;;0.84;100.00;101663.72;692368;28;1322;-63
2023/02/16 01:13:26;;;;;;;27.85;18.75;;;;;;;0.83;100.00;101662.84;692077;28;1324;-64
2023/02/16 01:13:50;;;;;;;27.15;18.63;;;;;;;0.83;100.00;101668.00;694203;28;1235;-63
2023/02/16 01:14:12;;;;;;;27.77;19.05;;;;;;;0.82;100.00;101671.38;693788;28;1309;-63
2023/02/16 01:14:32;;;;;;;27.30;19.35;;;;;;;0.82;100.00;101666.22;690861;28;1290;-63
2023/02/16 01:14:54;;;;;;;25.75;18.60;;;;;;;0.83;100.00;101657.72;690660;28;1906;-62
2023/02/16 01:15:20;;;;;;;25.90;18.38;;;;;;;0.86;100.00;101662.13;690490;28;1306;-63
2023/02/16 01:15:42;;;;;;;29.40;19.90;;;;;;;0.80;100.00;101665.28;689646;28;4315;-62
2023/02/16 01:16:03;;;;;;;27.95;20.15;;;;;;;0.80;100.00;101666.94;689214;28;2076;-64
2023/02/16 01:16:50;;;;;;;27.05;19.35;;;;;;;0.80;100.00;101662.72;691197;28;3607;-63
2023/02/16 01:17:11;;;;;;;27.55;19.20;;;;;;;0.83;100.00;101667.09;691140;28;1265;-63
2023/02/16 01:17:31;;;;;;;28.97;19.50;;;;;;;0.83;100.00;101668.00;691594;28;1294;-60
2023/02/16 01:17:52;;;;;;;28.40;19.48;;;;;;;0.84;100.00;101663.72;693171;28;1281;-63
2023/02/16 01:18:17;;;;;;;26.75;19.75;;;;;;;0.81;100.00;101664.44;691582;28;1331;-59
2023/02/16 01:18:38;;;;;;;29.05;19.73;;;;;;;0.83;100.00;101662.84;691256;28;1183;-63
2023/02/16 01:18:58;;;;;;;28.33;19.25;;;;;;;0.82;100.00;101670.50;691333;28;4685;-64
2023/02/16 01:19:19;;;;;;;27.33;18.77;;;;;;;0.84;100.00;101668.88;691031;28;1287;-63
2023/02/16 01:19:40;;;;;;;27.00;19.02;;;;;;;0.84;100.00;101674.03;689209;28;1317;-63
2023/02/16 01:20:01;;;;;;;27.70;19.07;;;;;;;0.85;100.00;101670.66;689335;28;1313;-64
2023/02/16 01:20:23;;;;;;;27.80;19.00;;;;;;;0.85;100.00;101673.22;692121;28;1158;-63
2023/02/16 01:20:44;;;;;;;26.92;18.98;;;;;;;0.85;100.00;101668.06;688136;28;1302;-64
2023/02/16 01:21:05;;;;;;;28.73;19.60;;;;;;;0.84;100.00;101666.31;688566;28;1121;-63
2023/02/16 01:21:25;;;;;;;26.90;19.33;;;;;;;0.80;100.00;101669.53;689309;28;1743;-63
2023/02/16 01:21:46;;;;;;;27.10;19.25;;;;;;;0.83;100.00;101667.09;688288;28;4515;-63
2023/02/16 01:22:06;;;;;;;27.77;19.63;;;;;;;0.82;100.00;101671.38;689716;28;1425;-61
2023/02/16 01:22:32;;;;;;;27.63;19.17;;;;;;;0.83;100.00;101670.56;690528;28;1381;-62
2023/02/16 01:22:53;;;;;;;27.60;18.80;;;;;;;0.85;100.00;101665.50;692885;28;1136;-64
2023/02/16 01:23:13;;;;;;;28.23;19.50;;;;;;;0.84;100.00;101663.72;692332;28;1261;-63
2023/02/16 01:23:36;;;;;;;30.25;19.77;;;;;;;0.80;100.00;101664.38;693284;28;1234;-63
2023/02/16 01:23:56;;;;;;;28.30;19.10;;;;;;;0.79;100.00;101665.16;690188;28;1535;-61
2023/02/16 01:24:17;;;;;;;27.47;19.03;;;;;;;0.77;100.00;101666.81;690601;28;1404;-63
2023/02/16 01:24:37;;;;;;;27.75;19.52;;;;;;;0.78;100.00;101668.56;691115;28;1258;-61
2023/02/16 01:24:58;;;;;;;28.73;20.00;;;;;;;0.78;100.00;101666.00;691365;28;4292;-63
2023/02/16 01:25:19;;;;;;;26.98;19.25;;;;;;;0.75;100.00;101666.72;689417;28;1253;-63
2023/02/16 01:25:40;;;;;;;27.15;19.58;;;;;;;0.74;100.00;101671.81;689310;28;1373;-63
2023/02/16 01:26:00;;;;;;;27.52;19.33;;;;;;;0.74;100.00;101670.09;689581;28;1223;-63
2023/02/16 01:26:21;;;;;;;26.30;19.00;;;;;;;0.74;100.00;101670.09;687053;28;1284;-63
2023/02/16 01:26:47;;;;;;;28.43;19.93;;;;;;;0.74;100.00;101669.22;685435;28;1494;-63
2023/02/16 01:27:12;;;;;;;28.45;19.80;;;;;;;0.72;100.00;101673.41;684601;28;1557;-63
2023/02/16 01:27:32;;;;;;;28.58;19.25;;;;;;;0.71;100.00;101669.94;683844;28;1267;-63
2023/02/16 01:27:53;;;;;;;27.63;19.50;;;;;;;0.71;100.00;101666.47;684014;28;4414;-64
2023/02/16 01:28:21;;;;;;;27.57;19.40;;;;;;;0.74;100.00;101669.22;686397;28;1226;-63
2023/02/16 01:28:43;;;;;;;27.38;19.58;;;;;;;0.74;100.00;101666.66;688615;28;1341;-60
2023/02/16 01:29:03;;;;;;;28.33;19.30;;;;;;;0.72;100.00;101657.94;688959;28;1226;-63
2023/02/16 01:29:24;;;;;;;28.03;19.57;;;;;;;0.70;100.00;101667.28;690995;28;1483;-63
2023/02/16 01:29:44;;;;;;;27.25;19.05;;;;;;;0.71;100.00;101669.03;692218;28;1446;-63
2023/02/16 01:30:11;;;;;;;28.37;18.90;;;;;;;0.65;100.00;101660.22;693751;28;1540;-63
2023/02/16 01:30:31;;;;;;;29.15;20.20;;;;;;;0.64;100.00;101663.59;693369;28;1238;-62
2023/02/16 01:30:52;;;;;;;28.13;19.55;;;;;;;0.64;100.00;101666.16;693641;28;4904;-63
2023/02/16 01:31:13;;;;;;;26.75;19.02;;;;;;;0.62;100.00;101665.22;691229;28;1379;-63
2023/02/16 01:31:34;;;;;;;28.45;19.33;;;;;;;0.63;100.00;101668.66;692195;28;1241;-63
2023/02/16 01:31:56;;;;;;;27.05;19.75;;;;;;;0.63;100.00;101676.38;691800;28;1179;-63
2023/02/16 01:32:16;;;;;;;27.98;20.20;;;;;;;0.61;100.00;101663.44;692031;28;1147;-64
2023/02/16 01:32:37;;;;;;;28.67;19.80;;;;;;;0.63;100.00;101664.38;689115;28;1449;-64
2023/02/16 01:32:59;;;;;;;28.35;19.48;;;;;;;0.61;100.00;101671.16;686190;28;1322;-61
2023/02/16 01:33:20;;;;;;;28.67;19.67;;;;;;;0.62;100.00;101666.88;685602;28;1176;-63
2023/02/16 01:33:41;;;;;;;27.47;19.80;;;;;;;0.61;100.00;101666.00;685852;28;5344;-62
2023/02/16 01:34:01;;;;;;;25.85;19.20;;;;;;;0.59;100.00;101667.59;685602;28;1245;-63
2023/02/16 01:34:22;;;;;;;27.73;19.70;;;;;;;0.58;100.00;101671.00;686759;28;1370;-64
2023/02/16 01:34:42;;;;;;;28.67;19.70;;;;;;;0.59;100.00;101666.75;689052;28;2035;-64
2023/02/16 01:35:03;;;;;;;27.33;19.53;;;;;;;0.61;100.00;101660.88;693277;28;1321;-63
2023/02/16 01:35:29;;;;;;;29.80;20.08;;;;;;;0.62;100.00;101665.22;693737;28;1302;-64
2023/02/16 01:35:52;;;;;;;29.50;19.33;;;;;;;0.61;100.00;101663.44;694249;28;1288;-64
2023/02/16 01:36:27;;;;;;;28.25;19.17;;;;;;;0.62;100.00;101659.16;690467;28;1370;-60
2023/02/16 01:36:47;;;;;;;29.13;19.70;;;;;;;0.62;100.00;101662.66;689566;28;4868;-62
2023/02/16 01:37:13;;;;;;;27.98;19.33;;;;;;;0.63;100.00;101661.81;691553;28;1350;-63
2023/02/16 01:37:36;;;;;;;28.15;19.10;;;;;;;0.61;100.00;101660.88;689085;28;1382;-63
2023/02/16 01:37:57;;;;;;;30.00;20.30;;;;;;;0.61;100.00;101659.97;689788;28;1422;-64
2023/02/16 01:38:24;;;;;;;30.30;20.70;;;;;;;0.62;100.00;101660.06;691409;28;1386;-63
2023/02/16 01:38:45;;;;;;;30.20;19.33;;;;;;;0.62;100.00;101662.66;691725;28;5231;-60
2023/02/16 01:39:14;;;;;;;27.38;19.75;;;;;;;0.61;100.00;101658.28;689322;28;1425;-62
2023/02/16 01:39:38;;;;;;;27.08;19.50;;;;;;;0.60;100.00;101661.66;691945;28;1101;-64
2023/02/16 01:39:58;;;;;;;27.15;19.27;;;;;;;0.63;100.00;101659.25;691276;28;4256;-63
2023/02/16 01:40:35;;;;;;;27.77;19.47;;;;;;;0.61;100.00;101663.44;691941;28;1180;-64
2023/02/16 01:41:23;;;;;;;30.17;19.98;;;;;;;0.58;100.00;101663.28;691142;28;1321;-63
2023/02/16 01:42:05;;;;;;;28.92;19.58;;;;;;;0.53;100.00;101659.59;694730;28;1221;-63
2023/02/16 01:42:43;;;;;;;28.40;20.45;;;;;;;0.55;100.00;101665.69;692230;28;1474;-64
2023/02/16 01:43:09;;;;;;;28.85;20.30;;;;;;;0.53;100.00;101657.00;694148;28;5985;-64
2023/02/16 01:43:45;;;;;;;27.90;19.52;;;;;;;0.54;100.00;101660.47;694311;28;1402;-64
2023/02/16 01:44:14;;;;;;;27.85;19.55;;;;;;;0.56;100.00;101666.59;693940;28;1492;-63
2023/02/16 01:44:37;;;;;;;28.90;19.63;;;;;;;0.53;100.00;101664.72;694379;28;1179;-63
2023/02/16 01:45:02;;;;;;;28.05;19.63;;;;;;;0.49;100.00;101665.38;693579;28;1466;-63
2023/02/16 01:45:32;;;;;;;27.67;19.83;;;;;;;0.44;100.00;101662.53;693489;28;1500;-63
2023/02/16 01:46:06;;;;;;;28.20;20.77;;;;;;;0.49;100.00;101657.66;694119;28;4508;-64
2023/02/16 01:46:50;;;;;;;27.73;20.15;;;;;;;0.48;100.00;101661.91;694255;28;1611;-61
2023/02/16 01:47:28;;;;;;;27.95;19.42;;;;;;;0.49;100.00;101660.22;691891;28;1730;-64
2023/02/16 01:47:53;;;;;;;28.17;20.10;;;;;;;0.50;100.00;101662.00;693466;28;1293;-64
2023/02/16 01:48:29;;;;;;;28.33;20.08;;;;;;;0.49;100.00;101665.38;694556;28;1166;-64
2023/02/16 01:48:49;;;;;;;29.38;19.88;;;;;;;0.47;100.00;101662.72;693204;28;4609;-63
2023/02/16 01:49:15;;;;;;;27.92;19.55;;;;;;;0.47;100.00;101661.81;692190;28;1223;-62
2023/02/16 01:49:35;;;;;;;26.88;19.48;;;;;;;0.47;100.00;101665.28;692241;28;1179;-64
2023/02/16 01:49:56;;;;;;;27.27;20.13;;;;;;;0.48;100.00;101668.75;692250;28;1191;-63
2023/02/16 01:50:21;;;;;;;28.23;19.90;;;;;;;0.48;100.00;101664.47;687189;28;1628;-63
2023/02/16 01:51:03;;;;;;;29.00;20.23;;;;;;;0.47;100.00;101664.41;686598;28;1403;-64
2023/02/16 01:51:29;;;;;;;29.05;20.48;;;;;;;0.45;100.00;101664.31;686431;28;2036;-63
2023/02/16 01:52:01;;;;;;;27.08;20.13;;;;;;;0.44;100.00;101667.69;686920;28;4543;-63
2023/02/16 01:52:36;;;;;;;30.35;20.50;;;;;;;0.42;100.00;101666.75;690207;28;1469;-63
2023/02/16 01:53:02;;;;;;;27.58;19.75;;;;;;;0.44;100.00;101666.81;693494;28;1163;-63
2023/02/16 01:53:51;;;;;;;31.02;20.40;;;;;;;0.48;100.00;101666.16;693331;28;1358;-62
2023/02/16 01:54:31;;;;;;;29.10;20.50;;;;;;;0.53;100.00;101668.97;694446;28;1270;-63
2023/02/16 01:54:58;;;;;;;27.90;20.05;;;;;;;0.52;100.00;101670.66;693438;28;4664;-63
2023/02/16 01:55:35;;;;;;;29.30;20.63;;;;;;;0.48;100.00;101669.63;688753;28;1238;-63
2023/02/16 01:56:02;;;;;;;29.50;19.30;;;;;;;0.42;100.00;101664.16;686774;28;1375;-63
2023/02/16 01:56:34;;;;;;;27.95;19.83;;;;;;;0.43;100.00;101662.47;686613;28;1363;-63
2023/02/16 01:57:03;;;;;;;28.50;20.17;;;;;;;0.44;100.00;101666.81;686854;28;1549;-63
2023/02/16 01:57:45;;;;;;;28.30;20.05;;;;;;;0.44;100.00;101661.66;689515;28;1485;-63
2023/02/16 01:58:14;;;;;;;28.33;19.48;;;;;;;0.40;100.00;101662.31;691381;28;4953;-64
2023/02/16 01:58:46;;;;;;;29.35;19.88;;;;;;;0.32;100.00;101660.22;692082;28;1514;-63
2023/02/16 01:59:15;;;;;;;27.35;19.73;;;;;;;0.32;100.00;101657.66;690684;28;2000;-62